Strona główna
METAR-TAF:

METAR-TAF

Lotnisko :

Port lotniczy Kudat

Kudat, Malezja

Szerokość geograficzna: 06-55N, Długość geograficzna: 116-50E, wysokość: 3 m

Aktualna obserwacja pogody

Raport powstał 49 minut temu, godzina 13:00 UTC
Wiatr 4 kt od południowy wschód, zmienny między wschodnio-północny wschód i południowo-południowy zachód
Temperatura 25°C
Wilgotność 89%
Ciśnienie 1011 hPa
Widzialność 10 km lub więcej
Mało chmury na wysokości 1300 ft
Rozproszone chmury na wysokości 3300 ft
Przerywane chmury na wysokości 26000 ft

METAR: WBKT 211300Z 13004KT 060V210 9999 FEW013 SCT033 BKN260 25/23 Q1011

czas: 21:49 (13:49 UTC)


TAF: brakujący

Obserwacja i prognoza pogody dla ponad 4000 lotnisk (raport METAR i TAF).

Dostępne stacje oznaczono żółtymi i czerwonymi punktami na mapie.

Najedź kursorem aby zobaczyć nazwę stacji.

Kliknij aby zobaczyć obserwacje i prognozy pogody.

Aby zmienić mapę: kliknij na zielony przycisk z czarnym krzyżykiem, aby powiększyć; na zielony przycisk z myślnikiem, aby pomniejszyć; na zielone strzałki, aby przejść do map sąsiednich.


METAR-TAF: